sensor_id;sensor_type;location;lat;lon;timestamp;temperature;humidity
11650;DHT22;5881;48.522;7.682;2023-06-22T00:00:19;22.60;1.00
11650;DHT22;5881;48.522;7.682;2023-06-22T00:02:46;22.60;1.00
11650;DHT22;5881;48.522;7.682;2023-06-22T00:05:12;22.60;99.90
11650;DHT22;5881;48.522;7.682;2023-06-22T00:07:38;22.60;99.90
11650;DHT22;5881;48.522;7.682;2023-06-22T00:10:03;22.70;99.90
11650;DHT22;5881;48.522;7.682;2023-06-22T00:12:29;22.60;99.90
11650;DHT22;5881;48.522;7.682;2023-06-22T00:14:55;22.60;1.00
11650;DHT22;5881;48.522;7.682;2023-06-22T00:17:21;22.40;1.00
11650;DHT22;5881;48.522;7.682;2023-06-22T00:19:49;22.40;99.90
11650;DHT22;5881;48.522;7.682;2023-06-22T00:22:19;22.40;1.00
11650;DHT22;5881;48.522;7.682;2023-06-22T00:24:54;22.30;1.00
11650;DHT22;5881;48.522;7.682;2023-06-22T00:27:19;22.30;99.90
11650;DHT22;5881;48.522;7.682;2023-06-22T00:29:45;22.10;1.00
11650;DHT22;5881;48.522;7.682;2023-06-22T00:32:10;22.10;99.90
11650;DHT22;5881;48.522;7.682;2023-06-22T00:34:36;22.00;1.00
11650;DHT22;5881;48.522;7.682;2023-06-22T00:37:02;22.00;1.00
11650;DHT22;5881;48.522;7.682;2023-06-22T00:39:27;22.00;99.90
11650;DHT22;5881;48.522;7.682;2023-06-22T00:41:53;22.10;1.00
11650;DHT22;5881;48.522;7.682;2023-06-22T00:44:18;22.10;1.00
11650;DHT22;5881;48.522;7.682;2023-06-22T00:46:47;22.00;94.00
11650;DHT22;5881;48.522;7.682;2023-06-22T00:49:13;22.00;1.00
11650;DHT22;5881;48.522;7.682;2023-06-22T00:51:38;21.90;1.00
11650;DHT22;5881;48.522;7.682;2023-06-22T00:54:05;21.80;99.90
11650;DHT22;5881;48.522;7.682;2023-06-22T00:56:32;21.80;99.90
11650;DHT22;5881;48.522;7.682;2023-06-22T00:58:58;21.80;1.00
11650;DHT22;5881;48.522;7.682;2023-06-22T01:01:24;21.80;1.00
11650;DHT22;5881;48.522;7.682;2023-06-22T01:03:51;21.70;99.90
11650;DHT22;5881;48.522;7.682;2023-06-22T01:06:29;21.60;99.90
11650;DHT22;5881;48.522;7.682;2023-06-22T01:09:15;21.60;99.90
11650;DHT22;5881;48.522;7.682;2023-06-22T01:11:45;21.60;1.00
11650;DHT22;5881;48.522;7.682;2023-06-22T01:14:23;21.60;99.90
11650;DHT22;5881;48.522;7.682;2023-06-22T01:16:51;21.50;99.90
11650;DHT22;5881;48.522;7.682;2023-06-22T01:19:45;21.50;99.90
11650;DHT22;5881;48.522;7.682;2023-06-22T01:22:16;21.40;99.90
11650;DHT22;5881;48.522;7.682;2023-06-22T01:30:06;21.40;1.00
11650;DHT22;5881;48.522;7.682;2023-06-22T01:32:34;21.40;1.00
11650;DHT22;5881;48.522;7.682;2023-06-22T01:35:03;21.30;1.00
11650;DHT22;5881;48.522;7.682;2023-06-22T01:37:29;21.30;1.00
11650;DHT22;5881;48.522;7.682;2023-06-22T01:39:58;21.40;1.00
11650;DHT22;5881;48.522;7.682;2023-06-22T01:42:24;21.40;1.00
11650;DHT22;5881;48.522;7.682;2023-06-22T01:44:52;21.40;99.90
11650;DHT22;5881;48.522;7.682;2023-06-22T01:47:19;21.40;99.90
11650;DHT22;5881;48.522;7.682;2023-06-22T01:49:46;21.40;99.90
11650;DHT22;5881;48.522;7.682;2023-06-22T01:52:12;21.30;99.90
11650;DHT22;5881;48.522;7.682;2023-06-22T01:54:39;21.20;1.00
11650;DHT22;5881;48.522;7.682;2023-06-22T01:57:05;21.30;99.90
11650;DHT22;5881;48.522;7.682;2023-06-22T01:59:36;21.30;99.90
11650;DHT22;5881;48.522;7.682;2023-06-22T02:02:10;21.30;99.90
11650;DHT22;5881;48.522;7.682;2023-06-22T02:04:46;21.30;1.00
11650;DHT22;5881;48.522;7.682;2023-06-22T02:07:14;21.30;1.00
11650;DHT22;5881;48.522;7.682;2023-06-22T02:09:44;21.40;1.00
11650;DHT22;5881;48.522;7.682;2023-06-22T02:12:12;21.30;1.00
11650;DHT22;5881;48.522;7.682;2023-06-22T02:14:39;21.30;99.90
11650;DHT22;5881;48.522;7.682;2023-06-22T02:17:07;21.30;99.90
11650;DHT22;5881;48.522;7.682;2023-06-22T02:19:36;21.30;1.00
11650;DHT22;5881;48.522;7.682;2023-06-22T02:22:03;21.30;1.00
11650;DHT22;5881;48.522;7.682;2023-06-22T02:24:28;21.30;1.00
11650;DHT22;5881;48.522;7.682;2023-06-22T02:26:57;21.30;99.90
11650;DHT22;5881;48.522;7.682;2023-06-22T02:29:23;21.20;99.90
11650;DHT22;5881;48.522;7.682;2023-06-22T02:31:49;21.20;99.90
11650;DHT22;5881;48.522;7.682;2023-06-22T02:34:14;21.20;99.90
11650;DHT22;5881;48.522;7.682;2023-06-22T02:36:47;21.20;99.90
11650;DHT22;5881;48.522;7.682;2023-06-22T02:39:20;21.10;1.00
11650;DHT22;5881;48.522;7.682;2023-06-22T02:41:48;21.10;1.00
11650;DHT22;5881;48.522;7.682;2023-06-22T02:44:14;21.20;1.00
11650;DHT22;5881;48.522;7.682;2023-06-22T02:46:40;21.10;1.00
11650;DHT22;5881;48.522;7.682;2023-06-22T02:49:05;21.10;1.00
11650;DHT22;5881;48.522;7.682;2023-06-22T02:51:33;21.10;1.00
11650;DHT22;5881;48.522;7.682;2023-06-22T02:53:59;21.10;99.90
11650;DHT22;5881;48.522;7.682;2023-06-22T02:56:25;21.10;1.00
11650;DHT22;5881;48.522;7.682;2023-06-22T02:58:51;21.00;99.90
11650;DHT22;5881;48.522;7.682;2023-06-22T03:01:19;20.90;1.00
11650;DHT22;5881;48.522;7.682;2023-06-22T03:03:49;20.90;1.00
11650;DHT22;5881;48.522;7.682;2023-06-22T03:06:15;20.90;1.00
11650;DHT22;5881;48.522;7.682;2023-06-22T03:08:41;20.80;1.00
11650;DHT22;5881;48.522;7.682;2023-06-22T03:11:07;20.80;1.00
11650;DHT22;5881;48.522;7.682;2023-06-22T03:13:33;20.80;1.00
11650;DHT22;5881;48.522;7.682;2023-06-22T03:15:59;20.80;1.00
11650;DHT22;5881;48.522;7.682;2023-06-22T03:18:24;20.80;1.00
11650;DHT22;5881;48.522;7.682;2023-06-22T03:20:50;20.70;1.00
11650;DHT22;5881;48.522;7.682;2023-06-22T03:23:15;20.60;4.00
11650;DHT22;5881;48.522;7.682;2023-06-22T03:25:42;20.60;1.40
11650;DHT22;5881;48.522;7.682;2023-06-22T03:28:10;20.50;17.70
11650;DHT22;5881;48.522;7.682;2023-06-22T03:30:35;20.50;99.90
11650;DHT22;5881;48.522;7.682;2023-06-22T03:33:01;20.40;99.90
11650;DHT22;5881;48.522;7.682;2023-06-22T03:35:27;20.40;99.90
11650;DHT22;5881;48.522;7.682;2023-06-22T03:37:52;20.50;99.90
11650;DHT22;5881;48.522;7.682;2023-06-22T03:40:18;20.40;99.90
11650;DHT22;5881;48.522;7.682;2023-06-22T03:42:43;20.40;99.90
11650;DHT22;5881;48.522;7.682;2023-06-22T03:45:09;20.40;99.90
11650;DHT22;5881;48.522;7.682;2023-06-22T03:47:35;20.40;99.90
11650;DHT22;5881;48.522;7.682;2023-06-22T03:50:01;20.40;99.90
11650;DHT22;5881;48.522;7.682;2023-06-22T03:52:29;20.50;99.90
11650;DHT22;5881;48.522;7.682;2023-06-22T03:54:54;20.50;99.90
11650;DHT22;5881;48.522;7.682;2023-06-22T03:57:20;20.50;99.90
11650;DHT22;5881;48.522;7.682;2023-06-22T03:59:45;20.50;99.90
11650;DHT22;5881;48.522;7.682;2023-06-22T04:02:11;20.50;99.90
11650;DHT22;5881;48.522;7.682;2023-06-22T04:04:37;20.40;99.90
11650;DHT22;5881;48.522;7.682;2023-06-22T04:07:04;20.50;99.90
11650;DHT22;5881;48.522;7.682;2023-06-22T04:09:30;20.40;99.90
11650;DHT22;5881;48.522;7.682;2023-06-22T04:11:55;20.50;99.90
11650;DHT22;5881;48.522;7.682;2023-06-22T04:14:21;20.50;99.90
11650;DHT22;5881;48.522;7.682;2023-06-22T04:16:46;20.50;99.90
11650;DHT22;5881;48.522;7.682;2023-06-22T04:19:12;20.40;99.90
11650;DHT22;5881;48.522;7.682;2023-06-22T04:21:42;20.50;99.90
11650;DHT22;5881;48.522;7.682;2023-06-22T04:24:08;20.60;99.90
11650;DHT22;5881;48.522;7.682;2023-06-22T04:26:34;20.70;45.50
11650;DHT22;5881;48.522;7.682;2023-06-22T04:29:05;20.80;1.00
11650;DHT22;5881;48.522;7.682;2023-06-22T04:31:32;20.70;1.00
11650;DHT22;5881;48.522;7.682;2023-06-22T04:34:00;20.80;1.00
11650;DHT22;5881;48.522;7.682;2023-06-22T04:36:39;20.90;1.00
11650;DHT22;5881;48.522;7.682;2023-06-22T04:39:10;20.90;1.00
11650;DHT22;5881;48.522;7.682;2023-06-22T04:41:37;20.90;1.00
11650;DHT22;5881;48.522;7.682;2023-06-22T04:44:16;21.10;1.00
11650;DHT22;5881;48.522;7.682;2023-06-22T04:46:59;21.20;1.00
11650;DHT22;5881;48.522;7.682;2023-06-22T04:49:30;21.30;99.90
11650;DHT22;5881;48.522;7.682;2023-06-22T04:52:00;21.30;87.80
11650;DHT22;5881;48.522;7.682;2023-06-22T04:54:26;21.40;1.00
11650;DHT22;5881;48.522;7.682;2023-06-22T04:56:52;21.60;1.00
11650;DHT22;5881;48.522;7.682;2023-06-22T04:59:24;21.90;1.00
11650;DHT22;5881;48.522;7.682;2023-06-22T05:02:00;22.10;1.00
11650;DHT22;5881;48.522;7.682;2023-06-22T05:04:27;22.20;1.00
11650;DHT22;5881;48.522;7.682;2023-06-22T05:06:59;22.50;1.00
11650;DHT22;5881;48.522;7.682;2023-06-22T05:09:28;22.70;5.40
11650;DHT22;5881;48.522;7.682;2023-06-22T05:11:54;22.90;1.00
11650;DHT22;5881;48.522;7.682;2023-06-22T05:14:21;22.80;99.90
11650;DHT22;5881;48.522;7.682;2023-06-22T05:16:49;23.20;1.00
11650;DHT22;5881;48.522;7.682;2023-06-22T05:19:14;23.30;99.90
11650;DHT22;5881;48.522;7.682;2023-06-22T05:21:40;23.30;99.90
11650;DHT22;5881;48.522;7.682;2023-06-22T05:24:06;23.60;99.90
11650;DHT22;5881;48.522;7.682;2023-06-22T05:26:33;24.20;99.90
11650;DHT22;5881;48.522;7.682;2023-06-22T05:29:00;24.60;99.90
11650;DHT22;5881;48.522;7.682;2023-06-22T05:31:26;24.70;99.90
11650;DHT22;5881;48.522;7.682;2023-06-22T05:33:53;24.70;99.90
11650;DHT22;5881;48.522;7.682;2023-06-22T05:36:20;24.90;99.90
11650;DHT22;5881;48.522;7.682;2023-06-22T05:38:46;24.90;94.90
11650;DHT22;5881;48.522;7.682;2023-06-22T05:41:12;25.60;81.60
11650;DHT22;5881;48.522;7.682;2023-06-22T05:43:39;25.80;33.10
11650;DHT22;5881;48.522;7.682;2023-06-22T05:46:05;26.10;22.10
11650;DHT22;5881;48.522;7.682;2023-06-22T05:48:31;26.50;6.60
11650;DHT22;5881;48.522;7.682;2023-06-22T05:50:56;25.90;1.00
11650;DHT22;5881;48.522;7.682;2023-06-22T05:53:22;25.70;1.00
11650;DHT22;5881;48.522;7.682;2023-06-22T05:55:48;25.50;1.00
11650;DHT22;5881;48.522;7.682;2023-06-22T05:58:13;26.10;1.00
11650;DHT22;5881;48.522;7.682;2023-06-22T06:00:40;25.60;1.00
11650;DHT22;5881;48.522;7.682;2023-06-22T06:03:07;26.20;1.00
11650;DHT22;5881;48.522;7.682;2023-06-22T06:05:34;26.30;1.00
11650;DHT22;5881;48.522;7.682;2023-06-22T06:08:04;26.40;1.00
11650;DHT22;5881;48.522;7.682;2023-06-22T06:10:31;26.40;1.00
11650;DHT22;5881;48.522;7.682;2023-06-22T06:12:57;26.80;1.00
11650;DHT22;5881;48.522;7.682;2023-06-22T06:15:23;26.90;1.00
11650;DHT22;5881;48.522;7.682;2023-06-22T06:17:50;28.20;1.00
11650;DHT22;5881;48.522;7.682;2023-06-22T06:20:21;28.10;1.00
11650;DHT22;5881;48.522;7.682;2023-06-22T06:22:47;28.30;1.00
11650;DHT22;5881;48.522;7.682;2023-06-22T06:25:13;28.20;1.00
11650;DHT22;5881;48.522;7.682;2023-06-22T06:27:44;28.20;1.00
11650;DHT22;5881;48.522;7.682;2023-06-22T06:30:11;28.10;1.00
11650;DHT22;5881;48.522;7.682;2023-06-22T06:32:37;28.40;1.00
11650;DHT22;5881;48.522;7.682;2023-06-22T06:35:08;27.10;1.00
11650;DHT22;5881;48.522;7.682;2023-06-22T06:37:39;26.50;1.00
11650;DHT22;5881;48.522;7.682;2023-06-22T06:40:08;27.50;1.00
11650;DHT22;5881;48.522;7.682;2023-06-22T06:42:42;26.90;1.00
11650;DHT22;5881;48.522;7.682;2023-06-22T06:45:21;26.60;1.00
11650;DHT22;5881;48.522;7.682;2023-06-22T06:47:48;26.50;1.00
11650;DHT22;5881;48.522;7.682;2023-06-22T06:50:15;26.20;1.00
11650;DHT22;5881;48.522;7.682;2023-06-22T06:52:41;25.90;1.00
11650;DHT22;5881;48.522;7.682;2023-06-22T06:55:07;25.70;1.00
11650;DHT22;5881;48.522;7.682;2023-06-22T06:57:35;26.50;1.00
11650;DHT22;5881;48.522;7.682;2023-06-22T07:00:03;26.20;1.00
11650;DHT22;5881;48.522;7.682;2023-06-22T07:02:34;25.80;1.00
11650;DHT22;5881;48.522;7.682;2023-06-22T07:05:00;25.80;99.90
11650;DHT22;5881;48.522;7.682;2023-06-22T07:07:26;26.10;1.00
11650;DHT22;5881;48.522;7.682;2023-06-22T07:09:51;26.10;1.00
11650;DHT22;5881;48.522;7.682;2023-06-22T07:12:17;25.50;1.00
11650;DHT22;5881;48.522;7.682;2023-06-22T07:14:42;26.80;1.00
11650;DHT22;5881;48.522;7.682;2023-06-22T07:17:08;26.60;1.00
11650;DHT22;5881;48.522;7.682;2023-06-22T07:19:34;27.30;1.00
11650;DHT22;5881;48.522;7.682;2023-06-22T07:21:59;27.50;1.00
11650;DHT22;5881;48.522;7.682;2023-06-22T07:24:25;28.60;1.00
11650;DHT22;5881;48.522;7.682;2023-06-22T07:26:51;29.40;1.00
11650;DHT22;5881;48.522;7.682;2023-06-22T07:29:17;28.50;1.00
11650;DHT22;5881;48.522;7.682;2023-06-22T07:31:43;27.90;1.00
11650;DHT22;5881;48.522;7.682;2023-06-22T07:34:09;27.80;1.00
11650;DHT22;5881;48.522;7.682;2023-06-22T07:36:34;27.20;1.00
11650;DHT22;5881;48.522;7.682;2023-06-22T07:39:04;28.30;1.00
11650;DHT22;5881;48.522;7.682;2023-06-22T07:41:30;28.20;1.00
11650;DHT22;5881;48.522;7.682;2023-06-22T07:43:56;28.50;1.00
11650;DHT22;5881;48.522;7.682;2023-06-22T07:46:22;30.70;1.00
11650;DHT22;5881;48.522;7.682;2023-06-22T07:48:48;29.90;1.00
11650;DHT22;5881;48.522;7.682;2023-06-22T07:51:14;30.80;1.00
11650;DHT22;5881;48.522;7.682;2023-06-22T07:53:43;29.60;1.00
11650;DHT22;5881;48.522;7.682;2023-06-22T07:56:13;30.50;1.00
11650;DHT22;5881;48.522;7.682;2023-06-22T07:58:39;29.80;1.00
11650;DHT22;5881;48.522;7.682;2023-06-22T08:01:05;29.50;1.00
11650;DHT22;5881;48.522;7.682;2023-06-22T08:03:31;29.70;1.00
11650;DHT22;5881;48.522;7.682;2023-06-22T08:05:57;31.20;1.00
11650;DHT22;5881;48.522;7.682;2023-06-22T08:08:23;30.70;1.00
11650;DHT22;5881;48.522;7.682;2023-06-22T08:10:49;28.90;1.00
11650;DHT22;5881;48.522;7.682;2023-06-22T08:13:14;29.20;1.00
11650;DHT22;5881;48.522;7.682;2023-06-22T08:15:40;28.20;1.00
11650;DHT22;5881;48.522;7.682;2023-06-22T08:18:05;27.80;1.00
11650;DHT22;5881;48.522;7.682;2023-06-22T08:20:31;27.40;1.00
11650;DHT22;5881;48.522;7.682;2023-06-22T08:22:57;27.60;1.00
11650;DHT22;5881;48.522;7.682;2023-06-22T08:25:25;28.90;1.00
11650;DHT22;5881;48.522;7.682;2023-06-22T08:27:51;29.20;1.00
11650;DHT22;5881;48.522;7.682;2023-06-22T08:30:16;30.40;1.00
11650;DHT22;5881;48.522;7.682;2023-06-22T08:32:44;30.10;1.00
11650;DHT22;5881;48.522;7.682;2023-06-22T08:35:10;30.70;1.00
11650;DHT22;5881;48.522;7.682;2023-06-22T08:37:36;30.30;1.00
11650;DHT22;5881;48.522;7.682;2023-06-22T08:40:03;30.90;1.00
11650;DHT22;5881;48.522;7.682;2023-06-22T08:42:34;31.10;1.00
11650;DHT22;5881;48.522;7.682;2023-06-22T08:45:00;30.00;1.00
11650;DHT22;5881;48.522;7.682;2023-06-22T08:47:27;29.60;1.00
11650;DHT22;5881;48.522;7.682;2023-06-22T08:49:53;29.90;1.00
11650;DHT22;5881;48.522;7.682;2023-06-22T08:52:18;28.90;1.00
11650;DHT22;5881;48.522;7.682;2023-06-22T08:54:48;28.30;1.00
11650;DHT22;5881;48.522;7.682;2023-06-22T08:57:14;28.40;1.00
11650;DHT22;5881;48.522;7.682;2023-06-22T08:59:40;28.50;1.00
11650;DHT22;5881;48.522;7.682;2023-06-22T09:02:06;27.80;1.00
11650;DHT22;5881;48.522;7.682;2023-06-22T09:04:31;28.50;1.00
11650;DHT22;5881;48.522;7.682;2023-06-22T09:07:03;29.60;1.00
11650;DHT22;5881;48.522;7.682;2023-06-22T09:09:29;29.10;1.00
11650;DHT22;5881;48.522;7.682;2023-06-22T09:11:54;29.20;1.00
11650;DHT22;5881;48.522;7.682;2023-06-22T09:14:20;29.00;1.00
11650;DHT22;5881;48.522;7.682;2023-06-22T09:16:45;28.90;1.00
11650;DHT22;5881;48.522;7.682;2023-06-22T09:19:11;28.70;1.00
11650;DHT22;5881;48.522;7.682;2023-06-22T09:21:37;29.10;1.00
11650;DHT22;5881;48.522;7.682;2023-06-22T09:24:03;28.50;1.00
11650;DHT22;5881;48.522;7.682;2023-06-22T09:26:29;27.80;1.00
11650;DHT22;5881;48.522;7.682;2023-06-22T09:28:55;27.70;1.00
11650;DHT22;5881;48.522;7.682;2023-06-22T09:31:20;27.30;1.00
11650;DHT22;5881;48.522;7.682;2023-06-22T09:33:54;27.50;1.00
11650;DHT22;5881;48.522;7.682;2023-06-22T09:36:21;27.20;1.00
11650;DHT22;5881;48.522;7.682;2023-06-22T09:38:48;26.90;1.00
11650;DHT22;5881;48.522;7.682;2023-06-22T09:41:14;27.40;1.00
11650;DHT22;5881;48.522;7.682;2023-06-22T09:43:40;27.60;1.00
11650;DHT22;5881;48.522;7.682;2023-06-22T09:46:05;27.60;1.00
11650;DHT22;5881;48.522;7.682;2023-06-22T09:48:32;27.60;1.00
11650;DHT22;5881;48.522;7.682;2023-06-22T09:50:58;27.60;1.00
11650;DHT22;5881;48.522;7.682;2023-06-22T09:53:24;27.70;1.00
11650;DHT22;5881;48.522;7.682;2023-06-22T09:55:49;27.30;1.00
11650;DHT22;5881;48.522;7.682;2023-06-22T09:58:15;27.30;1.00
11650;DHT22;5881;48.522;7.682;2023-06-22T10:00:40;27.50;1.00
11650;DHT22;5881;48.522;7.682;2023-06-22T10:03:07;27.40;1.00
11650;DHT22;5881;48.522;7.682;2023-06-22T10:05:32;27.20;1.00
11650;DHT22;5881;48.522;7.682;2023-06-22T10:07:58;27.90;1.00
11650;DHT22;5881;48.522;7.682;2023-06-22T10:10:23;28.50;1.00
11650;DHT22;5881;48.522;7.682;2023-06-22T10:12:56;28.80;1.00
11650;DHT22;5881;48.522;7.682;2023-06-22T10:15:22;31.10;1.00
11650;DHT22;5881;48.522;7.682;2023-06-22T10:17:48;30.70;1.00
11650;DHT22;5881;48.522;7.682;2023-06-22T10:20:14;30.00;1.00
11650;DHT22;5881;48.522;7.682;2023-06-22T10:22:44;29.80;1.00
11650;DHT22;5881;48.522;7.682;2023-06-22T10:25:11;28.80;1.00
11650;DHT22;5881;48.522;7.682;2023-06-22T10:27:37;28.80;1.00
11650;DHT22;5881;48.522;7.682;2023-06-22T10:30:06;28.10;1.00
11650;DHT22;5881;48.522;7.682;2023-06-22T10:32:32;28.70;1.00
11650;DHT22;5881;48.522;7.682;2023-06-22T10:34:58;29.30;1.00
11650;DHT22;5881;48.522;7.682;2023-06-22T10:37:23;30.70;1.00
11650;DHT22;5881;48.522;7.682;2023-06-22T10:39:49;30.80;1.00
11650;DHT22;5881;48.522;7.682;2023-06-22T10:42:15;31.00;1.00
11650;DHT22;5881;48.522;7.682;2023-06-22T10:44:40;32.90;1.00
11650;DHT22;5881;48.522;7.682;2023-06-22T10:47:08;32.10;1.00
11650;DHT22;5881;48.522;7.682;2023-06-22T10:49:34;30.70;1.00
11650;DHT22;5881;48.522;7.682;2023-06-22T10:51:59;31.20;1.00
11650;DHT22;5881;48.522;7.682;2023-06-22T10:54:25;31.10;1.00
11650;DHT22;5881;48.522;7.682;2023-06-22T10:56:51;30.00;1.00
11650;DHT22;5881;48.522;7.682;2023-06-22T10:59:16;30.70;1.00
11650;DHT22;5881;48.522;7.682;2023-06-22T11:01:42;30.20;1.00
11650;DHT22;5881;48.522;7.682;2023-06-22T11:04:07;30.40;1.00
11650;DHT22;5881;48.522;7.682;2023-06-22T11:06:33;29.90;1.00
11650;DHT22;5881;48.522;7.682;2023-06-22T11:09:00;30.30;1.00
11650;DHT22;5881;48.522;7.682;2023-06-22T11:11:25;30.50;1.00
11650;DHT22;5881;48.522;7.682;2023-06-22T11:13:52;30.60;1.00
11650;DHT22;5881;48.522;7.682;2023-06-22T11:16:18;31.00;1.00
11650;DHT22;5881;48.522;7.682;2023-06-22T11:18:43;31.40;1.00
11650;DHT22;5881;48.522;7.682;2023-06-22T11:21:09;31.70;1.00
11650;DHT22;5881;48.522;7.682;2023-06-22T11:23:35;31.30;1.00
11650;DHT22;5881;48.522;7.682;2023-06-22T11:26:00;30.30;1.00
11650;DHT22;5881;48.522;7.682;2023-06-22T11:28:26;31.00;1.00
11650;DHT22;5881;48.522;7.682;2023-06-22T11:30:52;30.90;1.00
11650;DHT22;5881;48.522;7.682;2023-06-22T11:33:17;31.90;1.00
11650;DHT22;5881;48.522;7.682;2023-06-22T11:35:43;31.70;1.00
11650;DHT22;5881;48.522;7.682;2023-06-22T11:38:08;31.90;1.00
11650;DHT22;5881;48.522;7.682;2023-06-22T11:40:34;32.90;1.00
11650;DHT22;5881;48.522;7.682;2023-06-22T11:42:59;32.50;1.00
11650;DHT22;5881;48.522;7.682;2023-06-22T11:45:25;31.40;1.00
11650;DHT22;5881;48.522;7.682;2023-06-22T11:47:51;30.40;1.00
11650;DHT22;5881;48.522;7.682;2023-06-22T11:50:16;29.90;1.00
11650;DHT22;5881;48.522;7.682;2023-06-22T11:52:42;29.80;1.00
11650;DHT22;5881;48.522;7.682;2023-06-22T11:55:08;29.80;1.00
11650;DHT22;5881;48.522;7.682;2023-06-22T11:57:35;29.70;1.00
11650;DHT22;5881;48.522;7.682;2023-06-22T12:00:01;29.50;1.00
11650;DHT22;5881;48.522;7.682;2023-06-22T12:02:27;29.40;1.00
11650;DHT22;5881;48.522;7.682;2023-06-22T12:04:52;29.60;1.00
11650;DHT22;5881;48.522;7.682;2023-06-22T12:07:20;30.10;1.00
11650;DHT22;5881;48.522;7.682;2023-06-22T12:09:46;30.50;1.00
11650;DHT22;5881;48.522;7.682;2023-06-22T12:12:12;30.90;1.00
11650;DHT22;5881;48.522;7.682;2023-06-22T12:14:40;31.50;1.00
11650;DHT22;5881;48.522;7.682;2023-06-22T12:17:06;31.10;1.00
11650;DHT22;5881;48.522;7.682;2023-06-22T12:19:32;30.30;1.00
11650;DHT22;5881;48.522;7.682;2023-06-22T12:22:08;30.70;1.00
11650;DHT22;5881;48.522;7.682;2023-06-22T12:24:42;30.80;1.00
11650;DHT22;5881;48.522;7.682;2023-06-22T12:27:08;31.40;1.00
11650;DHT22;5881;48.522;7.682;2023-06-22T12:29:35;31.60;1.00
11650;DHT22;5881;48.522;7.682;2023-06-22T12:32:00;32.00;1.00
11650;DHT22;5881;48.522;7.682;2023-06-22T12:34:26;32.20;1.00
11650;DHT22;5881;48.522;7.682;2023-06-22T12:36:52;31.00;1.00
11650;DHT22;5881;48.522;7.682;2023-06-22T12:39:20;31.40;1.00
11650;DHT22;5881;48.522;7.682;2023-06-22T12:41:45;32.40;1.00
11650;DHT22;5881;48.522;7.682;2023-06-22T12:44:11;32.00;1.00
11650;DHT22;5881;48.522;7.682;2023-06-22T12:46:36;32.20;1.00
11650;DHT22;5881;48.522;7.682;2023-06-22T12:49:04;31.30;1.00
11650;DHT22;5881;48.522;7.682;2023-06-22T12:51:30;31.60;1.00
11650;DHT22;5881;48.522;7.682;2023-06-22T12:53:56;32.20;1.00
11650;DHT22;5881;48.522;7.682;2023-06-22T12:56:22;32.30;1.00
11650;DHT22;5881;48.522;7.682;2023-06-22T12:58:47;31.60;1.00
11650;DHT22;5881;48.522;7.682;2023-06-22T13:01:13;31.90;1.00
11650;DHT22;5881;48.522;7.682;2023-06-22T13:03:39;31.80;1.00
11650;DHT22;5881;48.522;7.682;2023-06-22T13:06:05;33.20;1.00
11650;DHT22;5881;48.522;7.682;2023-06-22T13:08:30;33.20;1.00
11650;DHT22;5881;48.522;7.682;2023-06-22T13:10:56;32.50;1.00
11650;DHT22;5881;48.522;7.682;2023-06-22T13:13:23;32.20;1.00
11650;DHT22;5881;48.522;7.682;2023-06-22T13:15:55;31.70;1.00
11650;DHT22;5881;48.522;7.682;2023-06-22T13:18:21;31.30;1.00
11650;DHT22;5881;48.522;7.682;2023-06-22T13:20:46;31.40;1.00
11650;DHT22;5881;48.522;7.682;2023-06-22T13:23:12;31.50;1.00
11650;DHT22;5881;48.522;7.682;2023-06-22T13:25:38;32.20;1.00
11650;DHT22;5881;48.522;7.682;2023-06-22T13:28:03;32.20;1.00
11650;DHT22;5881;48.522;7.682;2023-06-22T13:30:29;32.00;1.00
11650;DHT22;5881;48.522;7.682;2023-06-22T13:32:55;31.50;1.00
11650;DHT22;5881;48.522;7.682;2023-06-22T13:35:21;31.30;1.00
11650;DHT22;5881;48.522;7.682;2023-06-22T13:37:47;31.60;1.00
11650;DHT22;5881;48.522;7.682;2023-06-22T13:40:12;32.00;1.00
11650;DHT22;5881;48.522;7.682;2023-06-22T13:42:38;32.40;1.00
11650;DHT22;5881;48.522;7.682;2023-06-22T13:45:04;32.50;1.00
11650;DHT22;5881;48.522;7.682;2023-06-22T13:47:30;32.70;1.00
11650;DHT22;5881;48.522;7.682;2023-06-22T13:49:56;32.50;1.00
11650;DHT22;5881;48.522;7.682;2023-06-22T13:52:23;32.40;1.00
11650;DHT22;5881;48.522;7.682;2023-06-22T13:54:49;31.60;1.00
11650;DHT22;5881;48.522;7.682;2023-06-22T13:57:14;31.70;1.00
11650;DHT22;5881;48.522;7.682;2023-06-22T13:59:40;32.20;1.00
11650;DHT22;5881;48.522;7.682;2023-06-22T14:02:06;32.50;1.00
11650;DHT22;5881;48.522;7.682;2023-06-22T14:04:32;33.10;1.00
11650;DHT22;5881;48.522;7.682;2023-06-22T14:06:57;33.40;1.00
11650;DHT22;5881;48.522;7.682;2023-06-22T14:09:23;33.10;1.00
11650;DHT22;5881;48.522;7.682;2023-06-22T14:11:49;32.80;1.00
11650;DHT22;5881;48.522;7.682;2023-06-22T14:14:14;32.70;1.00
11650;DHT22;5881;48.522;7.682;2023-06-22T14:16:40;32.80;1.00
11650;DHT22;5881;48.522;7.682;2023-06-22T14:19:05;33.00;1.00
11650;DHT22;5881;48.522;7.682;2023-06-22T14:21:31;32.90;1.00
11650;DHT22;5881;48.522;7.682;2023-06-22T14:23:56;32.10;1.00
11650;DHT22;5881;48.522;7.682;2023-06-22T14:26:22;32.30;1.00
11650;DHT22;5881;48.522;7.682;2023-06-22T14:28:48;32.50;1.00
11650;DHT22;5881;48.522;7.682;2023-06-22T14:31:16;32.80;1.00
11650;DHT22;5881;48.522;7.682;2023-06-22T14:33:46;33.00;1.00
11650;DHT22;5881;48.522;7.682;2023-06-22T14:36:11;32.70;1.00
11650;DHT22;5881;48.522;7.682;2023-06-22T14:38:37;31.90;1.00
11650;DHT22;5881;48.522;7.682;2023-06-22T14:41:03;31.70;1.00
11650;DHT22;5881;48.522;7.682;2023-06-22T14:43:28;31.60;1.00
11650;DHT22;5881;48.522;7.682;2023-06-22T14:45:54;31.50;1.00
11650;DHT22;5881;48.522;7.682;2023-06-22T14:48:20;31.80;1.00
11650;DHT22;5881;48.522;7.682;2023-06-22T14:50:45;31.40;1.00
11650;DHT22;5881;48.522;7.682;2023-06-22T14:53:11;31.60;1.00
11650;DHT22;5881;48.522;7.682;2023-06-22T14:55:36;31.30;1.00
11650;DHT22;5881;48.522;7.682;2023-06-22T14:58:02;31.40;1.00
11650;DHT22;5881;48.522;7.682;2023-06-22T15:00:27;31.90;1.00
11650;DHT22;5881;48.522;7.682;2023-06-22T15:02:53;32.10;1.00
11650;DHT22;5881;48.522;7.682;2023-06-22T15:05:19;32.40;1.00
11650;DHT22;5881;48.522;7.682;2023-06-22T15:07:44;32.10;1.00
11650;DHT22;5881;48.522;7.682;2023-06-22T15:10:10;31.90;1.00
11650;DHT22;5881;48.522;7.682;2023-06-22T15:12:36;31.90;1.00
11650;DHT22;5881;48.522;7.682;2023-06-22T15:15:01;31.70;1.00
11650;DHT22;5881;48.522;7.682;2023-06-22T15:17:27;31.40;1.00
11650;DHT22;5881;48.522;7.682;2023-06-22T15:19:55;31.30;1.00
11650;DHT22;5881;48.522;7.682;2023-06-22T15:22:21;30.90;1.00
11650;DHT22;5881;48.522;7.682;2023-06-22T15:24:46;30.80;1.00
11650;DHT22;5881;48.522;7.682;2023-06-22T15:27:13;30.80;1.00
11650;DHT22;5881;48.522;7.682;2023-06-22T15:29:39;30.40;1.00
11650;DHT22;5881;48.522;7.682;2023-06-22T15:32:06;30.40;1.00
11650;DHT22;5881;48.522;7.682;2023-06-22T15:34:31;30.10;1.00
11650;DHT22;5881;48.522;7.682;2023-06-22T15:36:59;30.20;1.00
11650;DHT22;5881;48.522;7.682;2023-06-22T15:39:25;30.50;1.00
11650;DHT22;5881;48.522;7.682;2023-06-22T15:41:52;30.40;1.00
11650;DHT22;5881;48.522;7.682;2023-06-22T15:44:21;30.50;1.00
11650;DHT22;5881;48.522;7.682;2023-06-22T15:46:47;30.60;1.00
11650;DHT22;5881;48.522;7.682;2023-06-22T15:49:14;30.60;1.00
11650;DHT22;5881;48.522;7.682;2023-06-22T15:51:40;30.70;1.00
11650;DHT22;5881;48.522;7.682;2023-06-22T15:54:06;30.70;1.00
11650;DHT22;5881;48.522;7.682;2023-06-22T15:56:31;30.80;1.00
11650;DHT22;5881;48.522;7.682;2023-06-22T15:58:57;30.60;1.00
11650;DHT22;5881;48.522;7.682;2023-06-22T16:01:23;30.80;1.00